createdAt,value
2017-10-15T00:41:32.852Z,100431.28
2017-10-15T00:44:04.638Z,100437.64
2017-10-15T00:46:36.616Z,100436.22
2017-10-15T00:49:08.492Z,100420.84
2017-10-15T00:51:40.773Z,100428.89
2017-10-15T00:54:12.411Z,100360.05
2017-10-15T00:56:44.754Z,100424.91
2017-10-15T00:59:17.655Z,100421.83
2017-10-15T01:01:52.801Z,100398.50
2017-10-15T01:08:55.352Z,100412.12
2017-10-15T01:14:21.329Z,100410.79
2017-10-15T01:16:53.515Z,100400.88
2017-10-15T01:19:25.499Z,100404.36
2017-10-15T01:21:59.271Z,100413.07
2017-10-15T01:24:32.640Z,100403.33
2017-10-15T01:27:05.036Z,100407.84
2017-10-15T01:29:37.334Z,100406.23
2017-10-15T01:32:10.838Z,100361.56
2017-10-15T01:34:42.421Z,100407.08
2017-10-15T01:37:14.153Z,100398.36
2017-10-15T01:39:48.928Z,100399.00
2017-10-15T01:42:22.588Z,100402.75
2017-10-15T01:44:54.021Z,100377.79
2017-10-15T01:47:25.855Z,100399.30
2017-10-15T01:49:58.487Z,100405.34
2017-10-15T01:52:30.087Z,100403.47
2017-10-15T01:55:03.155Z,100412.44
2017-10-15T01:57:34.859Z,100410.03
2017-10-15T02:00:07.004Z,100404.53
2017-10-15T02:02:49.949Z,100414.32
2017-10-15T02:05:23.542Z,100503.72
2017-10-15T02:07:56.398Z,100413.92
2017-10-15T02:10:28.070Z,100418.61
2017-10-15T02:13:00.703Z,100416.64
2017-10-15T02:15:31.906Z,100418.52
2017-10-15T02:18:04.354Z,100419.05
2017-10-15T02:20:36.522Z,100478.16
2017-10-15T02:23:09.628Z,100414.77
2017-10-15T02:25:51.525Z,100436.66
2017-10-15T02:28:22.783Z,100413.05
2017-10-15T02:30:54.767Z,100412.25
2017-10-15T02:33:26.385Z,100411.28
2017-10-15T02:36:01.113Z,100413.30
2017-10-15T02:38:32.865Z,100409.41
2017-10-15T02:41:05.683Z,100402.87
2017-10-15T02:43:37.036Z,100408.34
2017-10-15T02:46:09.386Z,100403.25
2017-10-15T02:48:41.537Z,100399.09
2017-10-15T02:51:14.307Z,100404.36
2017-10-15T02:53:47.876Z,100396.59
2017-10-15T02:56:19.553Z,100370.71
2017-10-15T02:58:57.097Z,100399.80
2017-10-15T03:01:28.584Z,100377.95
2017-10-15T03:04:00.133Z,100400.47
2017-10-15T03:06:31.840Z,100399.27
2017-10-15T03:09:03.278Z,100397.13
2017-10-15T03:11:37.412Z,100394.98
2017-10-15T03:14:08.955Z,100401.01
2017-10-15T03:16:40.844Z,100398.20
2017-10-15T03:19:12.689Z,100396.05
2017-10-15T03:21:44.693Z,100396.72
2017-10-15T03:24:17.139Z,100389.89
2017-10-15T03:26:52.346Z,100359.86
2017-10-15T03:29:24.298Z,100395.66
2017-10-15T03:31:56.375Z,100393.11
2017-10-15T03:34:27.830Z,100389.92
2017-10-15T03:36:59.442Z,100395.02
2017-10-15T03:39:30.930Z,100396.09
2017-10-15T03:42:02.890Z,100400.24
2017-10-15T03:44:34.930Z,100398.64
2017-10-15T03:47:06.556Z,100392.11
2017-10-15T03:49:38.247Z,100398.77
2017-10-15T03:52:10.554Z,100391.84
2017-10-15T03:54:42.183Z,100371.19
2017-10-15T03:57:14.277Z,100353.84
2017-10-15T03:59:48.715Z,100405.77
2017-10-15T04:02:19.671Z,100406.17
2017-10-15T04:04:52.745Z,100409.52
2017-10-15T04:07:24.840Z,100414.48
2017-10-15T04:09:56.814Z,100415.55
2017-10-15T04:12:28.673Z,100413.68
2017-10-15T04:15:00.199Z,100420.37
2017-10-15T04:17:31.541Z,100415.69
2017-10-15T04:20:04.404Z,100413.58
2017-10-15T04:22:37.806Z,100413.84
2017-10-15T04:25:10.578Z,100366.87
2017-10-15T04:27:42.567Z,100403.46
2017-10-15T04:30:15.708Z,100419.07
2017-10-15T04:32:50.960Z,100426.30
2017-10-15T04:35:22.511Z,100426.57
2017-10-15T04:37:54.024Z,100428.72
2017-10-15T04:40:25.964Z,100430.19
2017-10-15T04:42:57.448Z,100408.72
2017-10-15T04:45:29.399Z,100432.47
2017-10-15T04:48:01.779Z,100436.48
2017-10-15T04:50:33.469Z,100432.60
2017-10-15T04:53:04.819Z,100435.28
2017-10-15T04:55:36.909Z,100432.20
2017-10-15T04:58:09.671Z,100439.06
2017-10-15T05:00:41.149Z,100443.61
2017-10-15T05:03:14.211Z,100438.26
2017-10-15T05:05:49.583Z,100439.59
2017-10-15T05:08:23.392Z,100439.19
2017-10-15T05:10:55.614Z,100444.95
2017-10-15T05:13:28.593Z,100443.34
2017-10-15T05:15:59.984Z,100448.30
2017-10-15T05:18:32.001Z,100453.13
2017-10-15T05:21:05.354Z,100459.02
2017-10-15T05:23:36.941Z,100449.67
2017-10-15T05:26:09.882Z,100450.73
2017-10-15T05:28:41.641Z,100459.72
2017-10-15T05:31:13.979Z,100466.01
2017-10-15T05:33:49.017Z,100463.86
2017-10-15T05:36:20.472Z,100465.34
2017-10-15T05:38:54.455Z,100203.61
2017-10-15T05:41:25.672Z,100468.55
2017-10-15T05:43:57.733Z,100465.06
2017-10-15T05:46:29.664Z,100469.09
2017-10-15T05:49:01.833Z,100466.95
2017-10-15T05:51:34.915Z,100461.45
2017-10-15T05:54:06.734Z,100465.88
2017-10-15T05:56:39.035Z,100466.27
2017-10-15T05:59:10.960Z,100472.03
2017-10-15T06:01:43.023Z,100479.53
2017-10-15T06:04:15.429Z,100482.08
2017-10-15T06:06:48.864Z,100479.80
2017-10-15T06:09:20.762Z,100476.99
2017-10-15T06:11:54.734Z,100214.43
2017-10-15T06:14:25.961Z,100464.05
2017-10-15T06:16:57.813Z,100497.75
2017-10-15T06:19:30.264Z,100491.99
2017-10-15T06:22:02.825Z,100493.97
2017-10-15T06:24:35.059Z,100492.23
2017-10-15T06:27:07.653Z,100466.59
2017-10-15T06:29:40.036Z,100487.81
2017-10-15T06:32:12.160Z,100486.74
2017-10-15T06:34:48.014Z,100483.53
2017-10-15T06:37:20.123Z,100484.73
2017-10-15T06:39:52.454Z,100487.25
2017-10-15T06:42:24.304Z,100485.11
2017-10-15T06:44:55.653Z,100464.03
2017-10-15T06:47:27.289Z,100481.09
2017-10-15T06:49:59.879Z,100479.48
2017-10-15T06:52:31.650Z,100476.67
2017-10-15T06:55:05.509Z,100480.55
2017-10-15T06:57:37.576Z,100484.14
2017-10-15T07:00:10.504Z,100482.53
2017-10-15T07:02:42.345Z,100482.94
2017-10-15T07:05:15.653Z,100460.66
2017-10-15T07:07:53.811Z,100486.16
2017-10-15T07:10:25.619Z,100487.59
2017-10-15T07:12:58.739Z,100488.13
2017-10-15T07:15:29.962Z,100486.66
2017-10-15T07:18:04.786Z,100481.17
2017-10-15T07:20:38.467Z,100483.02
2017-10-15T07:23:13.450Z,100458.19
2017-10-15T07:25:51.853Z,100479.27
2017-10-15T07:28:25.464Z,100456.04
2017-10-15T07:30:57.132Z,100481.67
2017-10-15T07:33:29.211Z,100505.98
2017-10-15T07:36:01.228Z,100460.70
2017-10-15T07:38:35.096Z,100457.62
2017-10-15T07:41:11.993Z,100477.63
2017-10-15T07:43:43.190Z,100477.75
2017-10-15T07:46:18.057Z,100480.56
2017-10-15T07:48:51.599Z,100432.20
2017-10-15T07:51:24.609Z,100471.85
2017-10-15T07:53:56.233Z,100479.45
2017-10-15T07:56:28.401Z,100436.42
2017-10-15T07:59:01.022Z,100451.22
2017-10-15T08:01:32.814Z,100475.80
2017-10-15T08:04:05.761Z,100481.66
2017-10-15T08:06:37.407Z,100474.83
2017-10-15T08:09:08.302Z,100473.31
2017-10-15T08:11:46.366Z,100473.04
2017-10-15T08:14:19.113Z,100478.77
2017-10-15T08:16:51.247Z,100479.80
2017-10-15T08:19:23.497Z,100476.80
2017-10-15T08:21:57.354Z,100457.17
2017-10-15T08:24:29.060Z,100476.75
2017-10-15T08:27:05.823Z,100476.58
2017-10-15T08:29:40.954Z,100450.52
2017-10-15T08:32:15.795Z,100467.95
2017-10-15T08:34:49.110Z,100504.56
2017-10-15T08:37:22.742Z,100453.94
2017-10-15T08:39:54.248Z,100462.12
2017-10-15T08:42:25.970Z,100456.61
2017-10-15T08:44:57.882Z,100456.20
2017-10-15T08:47:29.560Z,100397.34
2017-10-15T08:50:01.643Z,100429.84
2017-10-15T08:52:33.222Z,100450.50
2017-10-15T08:55:05.692Z,100449.28
2017-10-15T08:57:36.922Z,100423.64
2017-10-15T09:00:11.274Z,100445.47
2017-10-15T09:02:43.098Z,100447.58
2017-10-15T09:05:18.133Z,100417.89
2017-10-15T09:07:49.987Z,100436.50
2017-10-15T09:10:21.101Z,100438.52
2017-10-15T09:12:52.867Z,100503.30
2017-10-15T09:15:23.992Z,100436.17
2017-10-15T09:17:55.896Z,100404.35
2017-10-15T09:20:27.143Z,100423.89
2017-10-15T09:22:58.813Z,100419.84
2017-10-15T09:25:31.025Z,100413.48
2017-10-15T09:28:03.161Z,100418.70
2017-10-15T09:30:35.396Z,100414.62
2017-10-15T09:33:07.598Z,100390.99
2017-10-15T09:35:41.090Z,100413.34
2017-10-15T09:38:18.862Z,100409.70
2017-10-15T10:13:19.826Z,100311.66
2017-10-15T10:15:51.679Z,100342.22
2017-10-15T10:18:23.037Z,100364.61
2017-10-15T10:26:58.602Z,100244.05
2017-10-15T12:54:46.290Z,100175.39
2017-10-15T12:57:19.748Z,100152.29
2017-10-15T12:59:52.095Z,100167.56
2017-10-15T13:02:25.034Z,100167.64
2017-10-15T13:04:56.685Z,100168.39
2017-10-15T13:07:29.345Z,100168.16
2017-10-15T13:10:01.581Z,100162.40
2017-10-15T13:12:34.998Z,100159.13
2017-10-15T13:15:08.806Z,100164.88
2017-10-15T13:17:44.042Z,100159.74
2017-10-15T13:20:18.312Z,100152.71
2017-10-15T13:22:52.502Z,100112.89
2017-10-15T13:25:23.871Z,100202.55
2017-10-15T13:27:55.506Z,100146.19
2017-10-15T13:30:28.666Z,100127.91
2017-10-15T13:33:01.972Z,100147.91
2017-10-15T13:35:34.696Z,100147.06
2017-10-15T13:38:06.226Z,100102.19
2017-10-15T13:40:37.490Z,100143.17
2017-10-15T13:43:11.532Z,100137.57
2017-10-15T13:45:45.912Z,100131.84
2017-10-15T13:48:19.397Z,100122.39
2017-10-15T13:50:54.013Z,100092.65
2017-10-15T13:53:28.098Z,100133.47
2017-10-15T13:55:59.522Z,100130.83
2017-10-15T13:58:38.242Z,100108.51
2017-10-15T14:01:14.012Z,100131.17
2017-10-15T14:03:45.409Z,100163.80
2017-10-15T14:06:19.074Z,100109.46
2017-10-15T14:08:51.579Z,100127.19
2017-10-15T14:11:23.218Z,100104.06
2017-10-15T14:13:56.795Z,100130.93
2017-10-15T14:16:53.917Z,99954.25
2017-10-15T14:19:25.978Z,100128.08
2017-10-15T14:22:00.190Z,100125.16
2017-10-15T14:24:31.866Z,100103.55
2017-10-15T14:27:03.588Z,100127.77
2017-10-15T14:29:37.008Z,100072.58
2017-10-15T14:32:08.486Z,100110.05
2017-10-15T14:34:39.589Z,100110.59
2017-10-15T14:37:12.703Z,100127.67
2017-10-15T14:39:44.378Z,100126.08
2017-10-15T14:42:17.976Z,100122.19
2017-10-15T14:44:54.842Z,100088.33
2017-10-15T14:47:25.896Z,100092.75
2017-10-15T14:49:58.929Z,100115.47
2017-10-15T14:52:30.295Z,100111.42
2017-10-15T14:55:02.311Z,100093.55
2017-10-15T14:57:33.617Z,100095.11
2017-10-15T15:00:05.238Z,100110.75
2017-10-15T15:02:36.894Z,100109.86
2017-10-15T15:05:12.304Z,100095.25
2017-10-15T15:07:45.050Z,100110.06
2017-10-15T15:10:18.370Z,100035.86
2017-10-15T15:12:54.107Z,100111.37
2017-10-15T15:15:27.504Z,100093.84
2017-10-15T15:17:58.837Z,100119.81
2017-10-15T15:20:31.035Z,100109.18
2017-10-15T15:23:03.056Z,100116.95
2017-10-15T15:25:34.089Z,100096.37
2017-10-15T15:28:05.620Z,100093.98
2017-10-15T15:30:36.614Z,100118.99
2017-10-15T15:33:11.184Z,100096.77
2017-10-15T15:35:44.273Z,100114.34
2017-10-15T15:38:16.033Z,100121.62
2017-10-15T15:40:47.576Z,100116.58
2017-10-15T15:43:19.121Z,100127.75
2017-10-15T15:45:50.336Z,100124.34
2017-10-15T15:48:22.049Z,100125.64
2017-10-15T15:50:56.349Z,100109.05
2017-10-15T15:53:28.569Z,100129.72
2017-10-15T15:56:00.045Z,100127.38
2017-10-15T15:58:33.056Z,100128.35
2017-10-15T16:01:04.566Z,100127.25
2017-10-15T16:03:36.185Z,100128.28
2017-10-15T16:06:10.167Z,100129.03
2017-10-15T16:08:47.979Z,100127.66
2017-10-15T16:11:20.368Z,100129.38
2017-10-15T16:13:53.532Z,100069.50
2017-10-15T16:16:27.662Z,100137.19
2017-10-15T16:19:01.080Z,100095.30
2017-10-15T16:21:34.606Z,100134.17
2017-10-15T16:24:06.602Z,100136.03
2017-10-15T16:26:40.856Z,100130.77
2017-10-15T16:29:15.736Z,100134.20
2017-10-15T16:31:48.731Z,100128.80
2017-10-15T16:34:21.017Z,100161.70
2017-10-15T16:36:52.948Z,100119.56
2017-10-15T16:39:24.956Z,100116.13
2017-10-15T16:41:57.523Z,100115.14
2017-10-15T16:44:29.436Z,100140.47
2017-10-15T16:47:00.501Z,100138.95
2017-10-15T16:49:31.648Z,100143.72
2017-10-15T16:52:03.280Z,100145.83
2017-10-15T16:54:38.376Z,100129.77
2017-10-15T16:57:12.399Z,100152.41
2017-10-15T16:59:44.138Z,100133.01
2017-10-15T17:02:17.762Z,100159.14
2017-10-15T17:04:50.258Z,100152.53
2017-10-15T17:07:22.016Z,100116.15
2017-10-15T17:09:54.354Z,100158.92
2017-10-15T17:12:26.497Z,100160.99
2017-10-15T17:14:59.147Z,100165.39
2017-10-15T17:17:31.633Z,100164.80
2017-10-15T17:20:06.083Z,100245.50
2017-10-15T17:22:40.263Z,100157.92
2017-10-15T17:25:17.992Z,100163.66
2017-10-15T17:27:50.340Z,100142.56
2017-10-15T17:30:24.178Z,100167.97
2017-10-15T17:32:59.668Z,100165.49
2017-10-15T17:35:32.474Z,100157.61
2017-10-15T17:38:04.382Z,100159.95
2017-10-15T17:40:37.910Z,100159.73
2017-10-15T17:43:10.727Z,100134.92
2017-10-15T17:45:43.883Z,100141.05
2017-10-15T17:48:19.097Z,100090.92
2017-10-15T17:50:51.199Z,100166.05
2017-10-15T17:53:23.703Z,100168.77
2017-10-15T17:55:58.468Z,100098.59
2017-10-15T17:58:45.704Z,100122.84
2017-10-15T18:01:18.473Z,100150.98
2017-10-15T18:03:50.966Z,100153.15
2017-10-15T18:06:27.789Z,100123.34
2017-10-15T18:09:22.571Z,100173.88
2017-10-15T18:12:00.256Z,100166.75
2017-10-15T18:14:35.892Z,100065.23
2017-10-15T20:19:19.523Z,100184.09
2017-10-15T20:21:52.752Z,100181.74
2017-10-15T20:24:24.693Z,100161.05
2017-10-15T20:26:55.786Z,100181.00
2017-10-15T20:29:27.716Z,100179.58
2017-10-15T20:32:00.929Z,100180.05
2017-10-15T20:34:32.949Z,100162.83
2017-10-15T20:37:05.770Z,100179.83
2017-10-15T20:39:40.001Z,100157.94
2017-10-15T20:42:13.205Z,100177.77
2017-10-15T20:44:46.616Z,100177.04
2017-10-15T20:47:18.518Z,100183.20
2017-10-15T20:49:50.831Z,100125.66
2017-10-15T20:52:22.135Z,100179.83
2017-10-15T20:54:55.499Z,100185.19
2017-10-15T20:57:30.780Z,100168.97
2017-10-15T21:00:03.817Z,100155.44
2017-10-15T21:02:36.563Z,100179.42
2017-10-15T21:05:12.660Z,100179.84
2017-10-15T21:07:46.905Z,100174.22
2017-10-15T21:10:18.827Z,100171.94
2017-10-15T21:12:54.705Z,100178.38
2017-10-15T21:15:28.596Z,100184.28
2017-10-15T21:18:01.157Z,100184.28
2017-10-15T21:20:33.467Z,100185.25
2017-10-15T21:23:28.578Z,100088.33
2017-10-15T21:26:02.235Z,100181.03
2017-10-15T21:28:33.853Z,100178.48
2017-10-15T21:31:05.876Z,100183.59
2017-10-15T21:33:37.255Z,100181.59
2017-10-15T21:36:08.707Z,100185.20
2017-10-15T21:38:41.148Z,100141.16
2017-10-15T21:41:15.364Z,100155.20
2017-10-15T21:43:47.546Z,100160.60
2017-10-15T21:46:18.932Z,100177.58
2017-10-15T21:48:50.939Z,100176.83
2017-10-15T21:51:23.014Z,100180.83
2017-10-15T21:53:54.681Z,100169.17
2017-10-15T21:56:26.451Z,100171.84
2017-10-15T21:58:59.649Z,100149.20
2017-10-15T22:04:18.666Z,100163.14
2017-10-15T22:06:50.388Z,100165.02
2017-10-15T22:09:22.406Z,100174.14
2017-10-15T22:11:54.876Z,100175.48
2017-10-15T22:14:26.869Z,100171.34
2017-10-15T22:16:59.416Z,100167.23
2017-10-15T22:19:30.696Z,100132.09
2017-10-15T22:22:05.530Z,100160.13
2017-10-15T22:24:36.495Z,100172.19
2017-10-15T22:27:08.195Z,100161.61
2017-10-15T22:29:39.938Z,100166.16
2017-10-15T22:32:13.688Z,100163.08
2017-10-15T22:34:46.015Z,100161.89
2017-10-15T22:37:17.844Z,100165.77
2017-10-15T22:39:49.688Z,100160.28
2017-10-15T22:42:21.130Z,100140.31
2017-10-15T22:44:52.116Z,100154.52
2017-10-15T22:47:24.904Z,100152.23
2017-10-15T22:49:56.365Z,100163.22
2017-10-15T22:52:28.241Z,100156.12
2017-10-15T22:54:59.747Z,100155.17
2017-10-15T22:57:31.712Z,100153.44
2017-10-15T23:00:04.928Z,100146.88
2017-10-15T23:02:37.293Z,100144.88
2017-10-15T23:05:13.813Z,100145.05
2017-10-15T23:07:47.793Z,100078.36
2017-10-15T23:10:26.882Z,100106.43
2017-10-15T23:12:59.662Z,100147.20
2017-10-15T23:15:31.383Z,100141.17
2017-10-15T23:18:03.296Z,100147.08
2017-10-15T23:20:34.999Z,100144.14
2017-10-15T23:23:06.957Z,100103.64
2017-10-15T23:25:39.550Z,100123.94
2017-10-15T23:28:14.695Z,100148.62
2017-10-15T23:30:47.258Z,100149.23
2017-10-15T23:33:19.527Z,100146.20
2017-10-15T23:35:50.988Z,100046.95
2017-10-15T23:38:23.448Z,100148.48
2017-10-15T23:40:55.909Z,100147.67
2017-10-15T23:43:27.520Z,100146.47
2017-10-15T23:46:03.601Z,100149.20
2017-10-15T23:48:38.597Z,100154.96
2017-10-15T23:51:12.212Z,100149.98
2017-10-15T23:53:44.192Z,100154.41
2017-10-15T23:56:19.641Z,100146.24
2017-10-15T23:58:51.977Z,100147.17
